sensor_id;sensor_type;location;lat;lon;timestamp;P1;durP1;ratioP1;P2;durP2;ratioP2
56712;SDS011;42589;45.536;9.032;2022-12-19T00:02:27;85.70;;;42.17;;
56712;SDS011;42589;45.536;9.032;2022-12-19T00:05:28;93.90;;;44.78;;
56712;SDS011;42589;45.536;9.032;2022-12-19T00:08:29;91.38;;;44.67;;
56712;SDS011;42589;45.536;9.032;2022-12-19T00:11:30;96.03;;;46.75;;
56712;SDS011;42589;45.536;9.032;2022-12-19T00:14:30;84.78;;;43.15;;
56712;SDS011;42589;45.536;9.032;2022-12-19T00:17:32;90.80;;;44.05;;
56712;SDS011;42589;45.536;9.032;2022-12-19T00:20:33;88.30;;;44.20;;
56712;SDS011;42589;45.536;9.032;2022-12-19T00:23:34;92.57;;;45.97;;
56712;SDS011;42589;45.536;9.032;2022-12-19T00:26:35;87.03;;;43.22;;
56712;SDS011;42589;45.536;9.032;2022-12-19T00:29:35;87.38;;;44.05;;
56712;SDS011;42589;45.536;9.032;2022-12-19T00:32:37;92.75;;;44.15;;
56712;SDS011;42589;45.536;9.032;2022-12-19T00:35:38;90.80;;;45.28;;
56712;SDS011;42589;45.536;9.032;2022-12-19T00:38:39;91.70;;;44.33;;
56712;SDS011;42589;45.536;9.032;2022-12-19T00:41:40;90.80;;;44.72;;
56712;SDS011;42589;45.536;9.032;2022-12-19T00:44:41;104.57;;;49.00;;
56712;SDS011;42589;45.536;9.032;2022-12-19T00:47:41;107.38;;;51.22;;
56712;SDS011;42589;45.536;9.032;2022-12-19T00:50:42;104.93;;;49.17;;
56712;SDS011;42589;45.536;9.032;2022-12-19T00:53:43;109.20;;;51.35;;
56712;SDS011;42589;45.536;9.032;2022-12-19T00:56:44;105.80;;;51.10;;
56712;SDS011;42589;45.536;9.032;2022-12-19T00:59:45;105.07;;;49.70;;
56712;SDS011;42589;45.536;9.032;2022-12-19T01:02:46;97.18;;;47.13;;
56712;SDS011;42589;45.536;9.032;2022-12-19T01:05:49;101.93;;;48.65;;
56712;SDS011;42589;45.536;9.032;2022-12-19T01:08:50;95.97;;;49.17;;
56712;SDS011;42589;45.536;9.032;2022-12-19T01:11:50;92.05;;;46.95;;
56712;SDS011;42589;45.536;9.032;2022-12-19T01:15:10;96.30;;;48.20;;
56712;SDS011;42589;45.536;9.032;2022-12-19T01:18:11;101.88;;;49.55;;
56712;SDS011;42589;45.536;9.032;2022-12-19T01:21:11;98.03;;;48.45;;
56712;SDS011;42589;45.536;9.032;2022-12-19T01:24:12;103.18;;;49.40;;
56712;SDS011;42589;45.536;9.032;2022-12-19T01:27:13;102.35;;;49.45;;
56712;SDS011;42589;45.536;9.032;2022-12-19T01:30:14;100.32;;;49.20;;
56712;SDS011;42589;45.536;9.032;2022-12-19T01:33:15;103.97;;;49.55;;
56712;SDS011;42589;45.536;9.032;2022-12-19T01:36:17;95.00;;;48.58;;
56712;SDS011;42589;45.536;9.032;2022-12-19T01:39:17;95.53;;;47.67;;
56712;SDS011;42589;45.536;9.032;2022-12-19T01:42:19;106.63;;;48.05;;
56712;SDS011;42589;45.536;9.032;2022-12-19T01:45:24;103.47;;;48.75;;
56712;SDS011;42589;45.536;9.032;2022-12-19T01:51:39;94.85;;;46.65;;
56712;SDS011;42589;45.536;9.032;2022-12-19T01:54:40;90.53;;;46.28;;
56712;SDS011;42589;45.536;9.032;2022-12-19T01:57:40;84.25;;;43.45;;
56712;SDS011;42589;45.536;9.032;2022-12-19T02:00:42;93.45;;;45.78;;
56712;SDS011;42589;45.536;9.032;2022-12-19T02:03:43;94.03;;;45.63;;
56712;SDS011;42589;45.536;9.032;2022-12-19T02:06:44;88.32;;;44.72;;
56712;SDS011;42589;45.536;9.032;2022-12-19T02:09:45;92.25;;;45.17;;
56712;SDS011;42589;45.536;9.032;2022-12-19T02:12:47;89.93;;;44.88;;
56712;SDS011;42589;45.536;9.032;2022-12-19T02:15:54;87.47;;;44.38;;
56712;SDS011;42589;45.536;9.032;2022-12-19T02:22:02;85.28;;;44.30;;
56712;SDS011;42589;45.536;9.032;2022-12-19T02:25:20;83.65;;;43.72;;
56712;SDS011;42589;45.536;9.032;2022-12-19T02:31:29;91.05;;;44.60;;
56712;SDS011;42589;45.536;9.032;2022-12-19T02:34:32;79.78;;;41.63;;
56712;SDS011;42589;45.536;9.032;2022-12-19T02:37:34;87.15;;;44.28;;
56712;SDS011;42589;45.536;9.032;2022-12-19T02:40:41;83.70;;;43.28;;
56712;SDS011;42589;45.536;9.032;2022-12-19T02:43:45;93.70;;;46.58;;
56712;SDS011;42589;45.536;9.032;2022-12-19T02:46:47;92.05;;;47.97;;
56712;SDS011;42589;45.536;9.032;2022-12-19T02:49:49;103.18;;;50.05;;
56712;SDS011;42589;45.536;9.032;2022-12-19T02:52:49;106.93;;;50.58;;
56712;SDS011;42589;45.536;9.032;2022-12-19T03:05:44;116.40;;;52.70;;
56712;SDS011;42589;45.536;9.032;2022-12-19T03:08:58;112.93;;;52.92;;
56712;SDS011;42589;45.536;9.032;2022-12-19T03:12:08;106.55;;;49.35;;
56712;SDS011;42589;45.536;9.032;2022-12-19T03:15:11;104.25;;;49.72;;
56712;SDS011;42589;45.536;9.032;2022-12-19T03:18:12;110.30;;;51.13;;
56712;SDS011;42589;45.536;9.032;2022-12-19T03:21:19;96.25;;;48.58;;
56712;SDS011;42589;45.536;9.032;2022-12-19T03:24:20;101.43;;;49.55;;
56712;SDS011;42589;45.536;9.032;2022-12-19T03:27:22;95.72;;;48.75;;
56712;SDS011;42589;45.536;9.032;2022-12-19T03:30:25;99.95;;;51.03;;
56712;SDS011;42589;45.536;9.032;2022-12-19T03:33:26;104.00;;;48.15;;
56712;SDS011;42589;45.536;9.032;2022-12-19T03:36:33;96.65;;;48.05;;
56712;SDS011;42589;45.536;9.032;2022-12-19T03:39:37;99.78;;;48.60;;
56712;SDS011;42589;45.536;9.032;2022-12-19T03:42:39;94.45;;;47.85;;
56712;SDS011;42589;45.536;9.032;2022-12-19T03:46:08;91.05;;;47.42;;
56712;SDS011;42589;45.536;9.032;2022-12-19T03:49:10;88.07;;;44.90;;
56712;SDS011;42589;45.536;9.032;2022-12-19T03:52:20;84.60;;;44.63;;
56712;SDS011;42589;45.536;9.032;2022-12-19T03:55:25;84.97;;;44.80;;
56712;SDS011;42589;45.536;9.032;2022-12-19T03:58:31;98.20;;;48.05;;
56712;SDS011;42589;45.536;9.032;2022-12-19T04:01:32;89.85;;;46.53;;
56712;SDS011;42589;45.536;9.032;2022-12-19T04:04:35;90.22;;;46.40;;
56712;SDS011;42589;45.536;9.032;2022-12-19T04:07:36;92.25;;;47.10;;
56712;SDS011;42589;45.536;9.032;2022-12-19T04:10:40;95.60;;;47.53;;
56712;SDS011;42589;45.536;9.032;2022-12-19T04:13:45;93.85;;;46.63;;
56712;SDS011;42589;45.536;9.032;2022-12-19T04:23:13;90.43;;;46.65;;
56712;SDS011;42589;45.536;9.032;2022-12-19T04:26:15;90.90;;;46.92;;
56712;SDS011;42589;45.536;9.032;2022-12-19T04:29:18;95.78;;;48.50;;
56712;SDS011;42589;45.536;9.032;2022-12-19T04:32:18;93.03;;;47.25;;
56712;SDS011;42589;45.536;9.032;2022-12-19T04:35:19;93.40;;;48.75;;
56712;SDS011;42589;45.536;9.032;2022-12-19T04:38:20;91.70;;;48.08;;
56712;SDS011;42589;45.536;9.032;2022-12-19T04:41:21;92.38;;;46.95;;
56712;SDS011;42589;45.536;9.032;2022-12-19T04:44:21;100.00;;;49.88;;
56712;SDS011;42589;45.536;9.032;2022-12-19T04:47:22;102.18;;;49.60;;
56712;SDS011;42589;45.536;9.032;2022-12-19T04:50:22;98.65;;;48.38;;
56712;SDS011;42589;45.536;9.032;2022-12-19T04:53:23;100.90;;;49.28;;
56712;SDS011;42589;45.536;9.032;2022-12-19T04:56:23;116.53;;;50.83;;
56712;SDS011;42589;45.536;9.032;2022-12-19T04:59:23;107.07;;;49.63;;
56712;SDS011;42589;45.536;9.032;2022-12-19T05:02:24;101.25;;;50.92;;
56712;SDS011;42589;45.536;9.032;2022-12-19T05:05:25;95.70;;;48.47;;
56712;SDS011;42589;45.536;9.032;2022-12-19T05:08:26;102.63;;;49.75;;
56712;SDS011;42589;45.536;9.032;2022-12-19T05:11:27;102.90;;;51.50;;
56712;SDS011;42589;45.536;9.032;2022-12-19T05:14:29;95.35;;;48.35;;
56712;SDS011;42589;45.536;9.032;2022-12-19T05:17:29;98.13;;;48.45;;
56712;SDS011;42589;45.536;9.032;2022-12-19T05:20:30;93.03;;;48.45;;
56712;SDS011;42589;45.536;9.032;2022-12-19T05:23:30;98.78;;;47.75;;
56712;SDS011;42589;45.536;9.032;2022-12-19T05:26:31;89.75;;;46.70;;
56712;SDS011;42589;45.536;9.032;2022-12-19T05:29:32;82.43;;;44.72;;
56712;SDS011;42589;45.536;9.032;2022-12-19T05:32:33;85.70;;;47.58;;
56712;SDS011;42589;45.536;9.032;2022-12-19T05:35:34;86.28;;;46.47;;
56712;SDS011;42589;45.536;9.032;2022-12-19T05:38:34;82.18;;;46.35;;
56712;SDS011;42589;45.536;9.032;2022-12-19T05:41:35;81.30;;;44.90;;
56712;SDS011;42589;45.536;9.032;2022-12-19T05:44:36;77.70;;;43.47;;
56712;SDS011;42589;45.536;9.032;2022-12-19T05:47:36;77.13;;;43.35;;
56712;SDS011;42589;45.536;9.032;2022-12-19T05:50:37;75.65;;;43.55;;
56712;SDS011;42589;45.536;9.032;2022-12-19T05:53:38;76.18;;;41.95;;
56712;SDS011;42589;45.536;9.032;2022-12-19T05:56:39;75.53;;;42.40;;
56712;SDS011;42589;45.536;9.032;2022-12-19T05:59:42;73.07;;;41.85;;
56712;SDS011;42589;45.536;9.032;2022-12-19T06:02:50;71.60;;;41.78;;
56712;SDS011;42589;45.536;9.032;2022-12-19T06:05:51;75.68;;;42.63;;
56712;SDS011;42589;45.536;9.032;2022-12-19T06:08:53;72.22;;;41.10;;
56712;SDS011;42589;45.536;9.032;2022-12-19T06:11:53;68.07;;;41.65;;
56712;SDS011;42589;45.536;9.032;2022-12-19T06:14:54;72.60;;;41.30;;
56712;SDS011;42589;45.536;9.032;2022-12-19T06:17:55;68.00;;;40.90;;
56712;SDS011;42589;45.536;9.032;2022-12-19T06:23:56;69.80;;;40.13;;
56712;SDS011;42589;45.536;9.032;2022-12-19T06:26:58;72.85;;;41.58;;
56712;SDS011;42589;45.536;9.032;2022-12-19T06:29:58;69.22;;;42.78;;
56712;SDS011;42589;45.536;9.032;2022-12-19T06:32:59;73.43;;;41.55;;
56712;SDS011;42589;45.536;9.032;2022-12-19T06:36:05;73.30;;;43.10;;
56712;SDS011;42589;45.536;9.032;2022-12-19T06:39:08;68.03;;;42.30;;
56712;SDS011;42589;45.536;9.032;2022-12-19T06:42:11;77.10;;;44.10;;
56712;SDS011;42589;45.536;9.032;2022-12-19T06:45:24;80.97;;;44.55;;
56712;SDS011;42589;45.536;9.032;2022-12-19T06:48:28;79.88;;;44.55;;
56712;SDS011;42589;45.536;9.032;2022-12-19T06:51:29;74.53;;;41.33;;
56712;SDS011;42589;45.536;9.032;2022-12-19T06:54:30;77.45;;;41.55;;
56712;SDS011;42589;45.536;9.032;2022-12-19T06:57:31;79.72;;;45.45;;
56712;SDS011;42589;45.536;9.032;2022-12-19T07:00:34;82.70;;;43.70;;
56712;SDS011;42589;45.536;9.032;2022-12-19T07:03:36;80.28;;;44.17;;
56712;SDS011;42589;45.536;9.032;2022-12-19T07:06:38;80.85;;;43.28;;
56712;SDS011;42589;45.536;9.032;2022-12-19T07:09:38;84.03;;;45.17;;
56712;SDS011;42589;45.536;9.032;2022-12-19T07:12:39;75.35;;;41.25;;
56712;SDS011;42589;45.536;9.032;2022-12-19T07:15:40;76.75;;;42.22;;
56712;SDS011;42589;45.536;9.032;2022-12-19T07:18:42;77.57;;;42.15;;
56712;SDS011;42589;45.536;9.032;2022-12-19T07:21:43;83.32;;;44.63;;
56712;SDS011;42589;45.536;9.032;2022-12-19T07:24:43;80.00;;;42.63;;
56712;SDS011;42589;45.536;9.032;2022-12-19T07:27:44;80.05;;;42.65;;
56712;SDS011;42589;45.536;9.032;2022-12-19T07:30:46;81.00;;;44.10;;
56712;SDS011;42589;45.536;9.032;2022-12-19T07:33:47;84.07;;;43.25;;
56712;SDS011;42589;45.536;9.032;2022-12-19T07:36:49;79.05;;;43.15;;
56712;SDS011;42589;45.536;9.032;2022-12-19T07:39:50;82.68;;;43.00;;
56712;SDS011;42589;45.536;9.032;2022-12-19T07:42:52;81.13;;;43.08;;
56712;SDS011;42589;45.536;9.032;2022-12-19T07:45:53;77.13;;;40.78;;
56712;SDS011;42589;45.536;9.032;2022-12-19T07:48:54;76.70;;;42.95;;
56712;SDS011;42589;45.536;9.032;2022-12-19T07:51:55;78.38;;;42.20;;
56712;SDS011;42589;45.536;9.032;2022-12-19T07:54:55;79.70;;;41.97;;
56712;SDS011;42589;45.536;9.032;2022-12-19T07:57:56;79.35;;;41.95;;
56712;SDS011;42589;45.536;9.032;2022-12-19T08:00:57;79.20;;;42.20;;
56712;SDS011;42589;45.536;9.032;2022-12-19T08:03:59;85.70;;;44.67;;
56712;SDS011;42589;45.536;9.032;2022-12-19T08:07:00;84.00;;;44.65;;
56712;SDS011;42589;45.536;9.032;2022-12-19T08:10:01;85.90;;;43.42;;
56712;SDS011;42589;45.536;9.032;2022-12-19T08:13:01;85.68;;;44.35;;
56712;SDS011;42589;45.536;9.032;2022-12-19T08:16:02;81.75;;;41.08;;
56712;SDS011;42589;45.536;9.032;2022-12-19T08:19:02;85.90;;;44.15;;
56712;SDS011;42589;45.536;9.032;2022-12-19T08:22:03;84.30;;;44.25;;
56712;SDS011;42589;45.536;9.032;2022-12-19T08:25:03;87.57;;;43.22;;
56712;SDS011;42589;45.536;9.032;2022-12-19T08:28:05;87.03;;;44.40;;
56712;SDS011;42589;45.536;9.032;2022-12-19T08:31:06;90.13;;;44.70;;
56712;SDS011;42589;45.536;9.032;2022-12-19T08:34:06;89.68;;;46.50;;
56712;SDS011;42589;45.536;9.032;2022-12-19T08:37:07;86.60;;;45.33;;
56712;SDS011;42589;45.536;9.032;2022-12-19T08:40:10;100.60;;;47.40;;
56712;SDS011;42589;45.536;9.032;2022-12-19T08:43:17;95.65;;;49.28;;
56712;SDS011;42589;45.536;9.032;2022-12-19T08:46:18;84.43;;;46.13;;
56712;SDS011;42589;45.536;9.032;2022-12-19T08:49:20;80.10;;;44.42;;
56712;SDS011;42589;45.536;9.032;2022-12-19T08:52:21;77.07;;;42.13;;
56712;SDS011;42589;45.536;9.032;2022-12-19T08:55:21;83.38;;;44.65;;
56712;SDS011;42589;45.536;9.032;2022-12-19T08:58:22;84.47;;;45.58;;
56712;SDS011;42589;45.536;9.032;2022-12-19T09:01:23;82.03;;;44.75;;
56712;SDS011;42589;45.536;9.032;2022-12-19T09:04:24;82.72;;;44.63;;
56712;SDS011;42589;45.536;9.032;2022-12-19T09:07:26;77.88;;;44.50;;
56712;SDS011;42589;45.536;9.032;2022-12-19T09:10:27;71.30;;;41.30;;
56712;SDS011;42589;45.536;9.032;2022-12-19T09:13:27;77.13;;;44.38;;
56712;SDS011;42589;45.536;9.032;2022-12-19T09:16:28;95.10;;;56.95;;
56712;SDS011;42589;45.536;9.032;2022-12-19T09:19:28;88.50;;;53.30;;
56712;SDS011;42589;45.536;9.032;2022-12-19T09:22:29;84.53;;;47.47;;
56712;SDS011;42589;45.536;9.032;2022-12-19T09:25:30;73.38;;;41.63;;
56712;SDS011;42589;45.536;9.032;2022-12-19T09:28:31;66.82;;;40.33;;
56712;SDS011;42589;45.536;9.032;2022-12-19T09:31:31;69.32;;;39.28;;
56712;SDS011;42589;45.536;9.032;2022-12-19T09:34:32;66.05;;;39.05;;
56712;SDS011;42589;45.536;9.032;2022-12-19T09:37:32;67.90;;;40.15;;
56712;SDS011;42589;45.536;9.032;2022-12-19T09:40:37;71.57;;;43.05;;
56712;SDS011;42589;45.536;9.032;2022-12-19T09:47:02;61.20;;;37.50;;
56712;SDS011;42589;45.536;9.032;2022-12-19T09:50:04;59.03;;;37.90;;
56712;SDS011;42589;45.536;9.032;2022-12-19T09:53:17;64.70;;;39.47;;
56712;SDS011;42589;45.536;9.032;2022-12-19T09:56:18;66.15;;;37.28;;
56712;SDS011;42589;45.536;9.032;2022-12-19T09:59:27;65.07;;;38.60;;
56712;SDS011;42589;45.536;9.032;2022-12-19T10:08:58;64.53;;;39.28;;
56712;SDS011;42589;45.536;9.032;2022-12-19T10:12:35;63.70;;;38.08;;
56712;SDS011;42589;45.536;9.032;2022-12-19T10:21:52;67.23;;;40.90;;
56712;SDS011;42589;45.536;9.032;2022-12-19T10:25:16;70.28;;;44.00;;
56712;SDS011;42589;45.536;9.032;2022-12-19T10:34:35;69.78;;;42.88;;
56712;SDS011;42589;45.536;9.032;2022-12-19T10:37:38;75.05;;;43.35;;
56712;SDS011;42589;45.536;9.032;2022-12-19T10:47:01;66.70;;;42.17;;
56712;SDS011;42589;45.536;9.032;2022-12-19T10:50:01;68.65;;;40.75;;
56712;SDS011;42589;45.536;9.032;2022-12-19T10:56:17;64.75;;;40.47;;
56712;SDS011;42589;45.536;9.032;2022-12-19T10:59:20;63.47;;;40.00;;
56712;SDS011;42589;45.536;9.032;2022-12-19T11:02:26;79.10;;;49.67;;
56712;SDS011;42589;45.536;9.032;2022-12-19T11:05:30;61.55;;;37.78;;
56712;SDS011;42589;45.536;9.032;2022-12-19T11:08:38;64.55;;;39.15;;
56712;SDS011;42589;45.536;9.032;2022-12-19T11:11:38;58.90;;;38.85;;
56712;SDS011;42589;45.536;9.032;2022-12-19T11:14:40;56.63;;;36.50;;
56712;SDS011;42589;45.536;9.032;2022-12-19T11:17:44;60.53;;;36.28;;
56712;SDS011;42589;45.536;9.032;2022-12-19T11:20:52;56.72;;;38.42;;
56712;SDS011;42589;45.536;9.032;2022-12-19T11:26:56;53.80;;;36.15;;
56712;SDS011;42589;45.536;9.032;2022-12-19T11:29:58;52.83;;;34.60;;
56712;SDS011;42589;45.536;9.032;2022-12-19T11:33:06;57.47;;;36.63;;
56712;SDS011;42589;45.536;9.032;2022-12-19T11:36:10;62.63;;;39.65;;
56712;SDS011;42589;45.536;9.032;2022-12-19T11:43:02;60.10;;;37.72;;
56712;SDS011;42589;45.536;9.032;2022-12-19T11:46:16;60.90;;;37.20;;
56712;SDS011;42589;45.536;9.032;2022-12-19T11:52:57;61.83;;;39.00;;
56712;SDS011;42589;45.536;9.032;2022-12-19T11:56:05;61.88;;;39.53;;
56712;SDS011;42589;45.536;9.032;2022-12-19T12:05:37;66.15;;;42.00;;
56712;SDS011;42589;45.536;9.032;2022-12-19T12:16:14;62.05;;;39.47;;
56712;SDS011;42589;45.536;9.032;2022-12-19T12:19:18;64.68;;;40.78;;
56712;SDS011;42589;45.536;9.032;2022-12-19T12:35:14;51.75;;;33.58;;
56712;SDS011;42589;45.536;9.032;2022-12-19T12:41:33;48.78;;;32.08;;
56712;SDS011;42589;45.536;9.032;2022-12-19T12:44:54;46.63;;;29.98;;
56712;SDS011;42589;45.536;9.032;2022-12-19T12:47:57;46.40;;;31.23;;
56712;SDS011;42589;45.536;9.032;2022-12-19T12:50:57;44.17;;;30.65;;
56712;SDS011;42589;45.536;9.032;2022-12-19T12:54:05;45.75;;;30.13;;
56712;SDS011;42589;45.536;9.032;2022-12-19T12:57:17;48.28;;;30.27;;
56712;SDS011;42589;45.536;9.032;2022-12-19T13:00:22;48.10;;;31.23;;
56712;SDS011;42589;45.536;9.032;2022-12-19T13:03:23;44.33;;;29.33;;
56712;SDS011;42589;45.536;9.032;2022-12-19T13:06:33;44.50;;;28.10;;
56712;SDS011;42589;45.536;9.032;2022-12-19T13:09:34;43.15;;;29.48;;
56712;SDS011;42589;45.536;9.032;2022-12-19T13:12:37;45.35;;;29.88;;
56712;SDS011;42589;45.536;9.032;2022-12-19T13:16:00;40.63;;;28.92;;
56712;SDS011;42589;45.536;9.032;2022-12-19T13:19:25;44.95;;;28.80;;
56712;SDS011;42589;45.536;9.032;2022-12-19T13:31:34;41.50;;;27.65;;
56712;SDS011;42589;45.536;9.032;2022-12-19T13:34:35;45.45;;;29.65;;
56712;SDS011;42589;45.536;9.032;2022-12-19T13:43:43;46.72;;;29.38;;
56712;SDS011;42589;45.536;9.032;2022-12-19T13:46:47;48.27;;;29.33;;
56712;SDS011;42589;45.536;9.032;2022-12-19T13:49:48;46.33;;;28.33;;
56712;SDS011;42589;45.536;9.032;2022-12-19T13:52:50;39.38;;;26.63;;
56712;SDS011;42589;45.536;9.032;2022-12-19T13:55:56;40.70;;;28.17;;
56712;SDS011;42589;45.536;9.032;2022-12-19T13:58:59;42.53;;;27.35;;
56712;SDS011;42589;45.536;9.032;2022-12-19T14:02:07;40.08;;;27.60;;
56712;SDS011;42589;45.536;9.032;2022-12-19T14:05:26;39.25;;;26.50;;
56712;SDS011;42589;45.536;9.032;2022-12-19T14:08:28;40.63;;;27.40;;
56712;SDS011;42589;45.536;9.032;2022-12-19T14:11:28;42.35;;;26.85;;
56712;SDS011;42589;45.536;9.032;2022-12-19T14:14:29;40.70;;;27.13;;
56712;SDS011;42589;45.536;9.032;2022-12-19T14:17:48;43.40;;;29.10;;
56712;SDS011;42589;45.536;9.032;2022-12-19T14:20:50;35.85;;;26.90;;
56712;SDS011;42589;45.536;9.032;2022-12-19T14:23:52;38.50;;;27.05;;
56712;SDS011;42589;45.536;9.032;2022-12-19T14:26:58;38.08;;;27.05;;
56712;SDS011;42589;45.536;9.032;2022-12-19T14:29:59;36.80;;;26.35;;
56712;SDS011;42589;45.536;9.032;2022-12-19T14:33:05;39.25;;;27.27;;
56712;SDS011;42589;45.536;9.032;2022-12-19T14:36:07;40.22;;;27.25;;
56712;SDS011;42589;45.536;9.032;2022-12-19T14:39:13;39.90;;;27.80;;
56712;SDS011;42589;45.536;9.032;2022-12-19T14:42:14;40.53;;;28.73;;
56712;SDS011;42589;45.536;9.032;2022-12-19T14:45:38;41.58;;;29.02;;
56712;SDS011;42589;45.536;9.032;2022-12-19T14:48:55;41.72;;;29.25;;
56712;SDS011;42589;45.536;9.032;2022-12-19T14:51:56;41.00;;;29.70;;
56712;SDS011;42589;45.536;9.032;2022-12-19T14:55:13;46.03;;;30.25;;
56712;SDS011;42589;45.536;9.032;2022-12-19T14:58:17;43.75;;;30.17;;
56712;SDS011;42589;45.536;9.032;2022-12-19T15:01:20;47.67;;;32.03;;
56712;SDS011;42589;45.536;9.032;2022-12-19T15:04:21;46.17;;;31.80;;
56712;SDS011;42589;45.536;9.032;2022-12-19T15:07:23;48.03;;;32.63;;
56712;SDS011;42589;45.536;9.032;2022-12-19T15:10:31;49.88;;;33.10;;
56712;SDS011;42589;45.536;9.032;2022-12-19T15:13:33;54.38;;;35.60;;
56712;SDS011;42589;45.536;9.032;2022-12-19T15:16:34;52.03;;;33.88;;
56712;SDS011;42589;45.536;9.032;2022-12-19T15:19:34;49.72;;;35.30;;
56712;SDS011;42589;45.536;9.032;2022-12-19T15:22:35;54.00;;;35.65;;
56712;SDS011;42589;45.536;9.032;2022-12-19T15:25:41;58.10;;;36.85;;
56712;SDS011;42589;45.536;9.032;2022-12-19T15:28:51;51.03;;;34.83;;
56712;SDS011;42589;45.536;9.032;2022-12-19T15:31:52;50.75;;;35.50;;
56712;SDS011;42589;45.536;9.032;2022-12-19T15:34:52;54.72;;;35.80;;
56712;SDS011;42589;45.536;9.032;2022-12-19T15:37:53;56.53;;;36.42;;
56712;SDS011;42589;45.536;9.032;2022-12-19T15:40:54;54.03;;;36.13;;
56712;SDS011;42589;45.536;9.032;2022-12-19T15:43:54;53.90;;;37.42;;
56712;SDS011;42589;45.536;9.032;2022-12-19T15:46:55;54.67;;;36.63;;
56712;SDS011;42589;45.536;9.032;2022-12-19T15:49:56;58.22;;;37.97;;
56712;SDS011;42589;45.536;9.032;2022-12-19T15:53:00;56.65;;;38.30;;
56712;SDS011;42589;45.536;9.032;2022-12-19T15:56:01;59.17;;;38.08;;
56712;SDS011;42589;45.536;9.032;2022-12-19T15:59:02;58.22;;;38.40;;
56712;SDS011;42589;45.536;9.032;2022-12-19T16:02:12;53.58;;;37.08;;
56712;SDS011;42589;45.536;9.032;2022-12-19T16:05:14;53.20;;;36.20;;
56712;SDS011;42589;45.536;9.032;2022-12-19T16:08:16;55.00;;;37.08;;
56712;SDS011;42589;45.536;9.032;2022-12-19T16:11:23;57.60;;;37.55;;
56712;SDS011;42589;45.536;9.032;2022-12-19T16:14:26;55.25;;;38.33;;
56712;SDS011;42589;45.536;9.032;2022-12-19T16:17:28;58.28;;;39.22;;
56712;SDS011;42589;45.536;9.032;2022-12-19T16:20:31;56.58;;;37.65;;
56712;SDS011;42589;45.536;9.032;2022-12-19T16:23:32;61.13;;;40.15;;
56712;SDS011;42589;45.536;9.032;2022-12-19T16:26:33;60.70;;;40.38;;
56712;SDS011;42589;45.536;9.032;2022-12-19T16:29:34;64.05;;;41.17;;
56712;SDS011;42589;45.536;9.032;2022-12-19T16:32:36;63.80;;;41.03;;
56712;SDS011;42589;45.536;9.032;2022-12-19T16:35:36;67.78;;;42.50;;
56712;SDS011;42589;45.536;9.032;2022-12-19T16:38:38;67.63;;;41.13;;
56712;SDS011;42589;45.536;9.032;2022-12-19T16:41:39;70.78;;;41.53;;
56712;SDS011;42589;45.536;9.032;2022-12-19T16:44:40;68.60;;;43.00;;
56712;SDS011;42589;45.536;9.032;2022-12-19T16:47:41;73.55;;;43.05;;
56712;SDS011;42589;45.536;9.032;2022-12-19T16:50:42;73.15;;;42.80;;
56712;SDS011;42589;45.536;9.032;2022-12-19T16:53:43;74.15;;;42.25;;
56712;SDS011;42589;45.536;9.032;2022-12-19T16:56:47;76.88;;;43.42;;
56712;SDS011;42589;45.536;9.032;2022-12-19T16:59:48;84.60;;;47.55;;
56712;SDS011;42589;45.536;9.032;2022-12-19T17:05:49;84.35;;;45.92;;
56712;SDS011;42589;45.536;9.032;2022-12-19T17:08:50;82.85;;;45.38;;
56712;SDS011;42589;45.536;9.032;2022-12-19T17:11:58;85.03;;;46.88;;
56712;SDS011;42589;45.536;9.032;2022-12-19T17:14:59;84.95;;;45.45;;
56712;SDS011;42589;45.536;9.032;2022-12-19T17:18:43;88.53;;;46.78;;
56712;SDS011;42589;45.536;9.032;2022-12-19T17:21:24;84.78;;;46.28;;
56712;SDS011;42589;45.536;9.032;2022-12-19T17:24:25;90.72;;;48.13;;
56712;SDS011;42589;45.536;9.032;2022-12-19T17:27:25;87.07;;;47.38;;
56712;SDS011;42589;45.536;9.032;2022-12-19T17:30:26;89.55;;;46.63;;
56712;SDS011;42589;45.536;9.032;2022-12-19T17:33:34;83.72;;;45.33;;
56712;SDS011;42589;45.536;9.032;2022-12-19T17:36:35;84.35;;;45.58;;
56712;SDS011;42589;45.536;9.032;2022-12-19T17:39:36;83.22;;;46.80;;
56712;SDS011;42589;45.536;9.032;2022-12-19T17:42:37;87.28;;;47.55;;
56712;SDS011;42589;45.536;9.032;2022-12-19T17:45:38;94.82;;;50.83;;
56712;SDS011;42589;45.536;9.032;2022-12-19T17:48:45;89.32;;;48.17;;
56712;SDS011;42589;45.536;9.032;2022-12-19T17:54:49;83.72;;;46.33;;
56712;SDS011;42589;45.536;9.032;2022-12-19T17:57:50;83.18;;;45.10;;
56712;SDS011;42589;45.536;9.032;2022-12-19T18:00:51;86.93;;;46.55;;
56712;SDS011;42589;45.536;9.032;2022-12-19T18:03:52;89.75;;;48.45;;
56712;SDS011;42589;45.536;9.032;2022-12-19T18:06:53;91.15;;;49.22;;
56712;SDS011;42589;45.536;9.032;2022-12-19T18:09:53;85.95;;;46.30;;
56712;SDS011;42589;45.536;9.032;2022-12-19T18:12:55;84.82;;;45.58;;
56712;SDS011;42589;45.536;9.032;2022-12-19T18:15:56;88.03;;;46.55;;
56712;SDS011;42589;45.536;9.032;2022-12-19T18:18:57;89.20;;;47.72;;
56712;SDS011;42589;45.536;9.032;2022-12-19T18:21:58;88.75;;;46.42;;
56712;SDS011;42589;45.536;9.032;2022-12-19T18:24:58;93.97;;;48.47;;
56712;SDS011;42589;45.536;9.032;2022-12-19T18:27:59;92.55;;;48.97;;
56712;SDS011;42589;45.536;9.032;2022-12-19T18:31:08;86.13;;;46.83;;
56712;SDS011;42589;45.536;9.032;2022-12-19T18:34:16;90.55;;;46.10;;
56712;SDS011;42589;45.536;9.032;2022-12-19T18:37:17;101.32;;;49.47;;
56712;SDS011;42589;45.536;9.032;2022-12-19T18:40:19;92.43;;;46.67;;
56712;SDS011;42589;45.536;9.032;2022-12-19T18:43:20;90.15;;;47.00;;
56712;SDS011;42589;45.536;9.032;2022-12-19T18:46:23;92.00;;;47.35;;
56712;SDS011;42589;45.536;9.032;2022-12-19T18:49:25;89.65;;;46.80;;
56712;SDS011;42589;45.536;9.032;2022-12-19T18:52:27;88.53;;;45.30;;
56712;SDS011;42589;45.536;9.032;2022-12-19T18:55:28;95.35;;;48.75;;
56712;SDS011;42589;45.536;9.032;2022-12-19T18:58:30;85.78;;;45.28;;
56712;SDS011;42589;45.536;9.032;2022-12-19T19:01:31;86.65;;;44.90;;
56712;SDS011;42589;45.536;9.032;2022-12-19T19:04:32;88.05;;;45.60;;
56712;SDS011;42589;45.536;9.032;2022-12-19T19:07:32;87.80;;;45.72;;
56712;SDS011;42589;45.536;9.032;2022-12-19T19:10:33;84.95;;;45.53;;
56712;SDS011;42589;45.536;9.032;2022-12-19T19:13:33;86.72;;;44.97;;
56712;SDS011;42589;45.536;9.032;2022-12-19T19:16:34;86.25;;;45.22;;
56712;SDS011;42589;45.536;9.032;2022-12-19T19:19:35;87.72;;;44.47;;
56712;SDS011;42589;45.536;9.032;2022-12-19T19:22:39;85.95;;;44.17;;
56712;SDS011;42589;45.536;9.032;2022-12-19T19:25:40;87.78;;;44.58;;
56712;SDS011;42589;45.536;9.032;2022-12-19T19:28:40;90.32;;;47.35;;
56712;SDS011;42589;45.536;9.032;2022-12-19T19:31:42;90.43;;;45.80;;
56712;SDS011;42589;45.536;9.032;2022-12-19T19:34:43;88.72;;;45.97;;
56712;SDS011;42589;45.536;9.032;2022-12-19T19:37:45;92.45;;;46.53;;
56712;SDS011;42589;45.536;9.032;2022-12-19T19:40:46;82.80;;;46.10;;
56712;SDS011;42589;45.536;9.032;2022-12-19T19:43:47;86.07;;;44.25;;
56712;SDS011;42589;45.536;9.032;2022-12-19T19:46:47;84.32;;;44.75;;
56712;SDS011;42589;45.536;9.032;2022-12-19T19:49:48;83.28;;;42.78;;
56712;SDS011;42589;45.536;9.032;2022-12-19T19:52:48;80.45;;;45.00;;